aviador You're here:

KTVY Decoded Metar

in
Report Time2018-01-19 18:35:00
UTC Time2018-01-19 19:00:35
Flight Rules vfr VFR
Wind180° at 18 Gusting to 29 kt
W.Decomp.*RWY 17: 17.7 kt HW 3.1 kt RCW
W.Rank180° ranks 1
Current wind is above 180° avg. (10.4)
Visibility9999 m
Phenomena:N/A
Clouds:N/A
Expected CloudBase > 5,200 ft AGL from Temp-Dew spread
CeilingNone
Temp13°C
Dew Point00°C (41% RH)
AAT4.5°C
QNH1009 hPa
Raw Report
KTVY 191835Z AUTO 18018G29KT 10SM CLR 13/00 A2980 RMK AO2=

Extra information for KTVY:More info

Social comments